sensor_id;sensor_type;location;lat;lon;timestamp;pressure;altitude;pressure_sealevel;temperature;humidity
62634;BME280;48704;50.534;6.442;2023-04-07T00:00:11;95288.25;;;5.19;100.00
62634;BME280;48704;50.534;6.442;2023-04-07T00:02:36;95289.47;;;5.18;100.00
62634;BME280;48704;50.534;6.442;2023-04-07T00:05:02;95279.00;;;5.13;100.00
62634;BME280;48704;50.534;6.442;2023-04-07T00:07:27;95285.78;;;5.21;100.00
62634;BME280;48704;50.534;6.442;2023-04-07T00:09:52;95283.63;;;5.16;100.00
62634;BME280;48704;50.534;6.442;2023-04-07T00:12:17;95289.94;;;5.17;100.00
62634;BME280;48704;50.534;6.442;2023-04-07T00:14:43;95284.41;;;5.17;100.00
62634;BME280;48704;50.534;6.442;2023-04-07T00:17:08;95285.19;;;5.17;100.00
62634;BME280;48704;50.534;6.442;2023-04-07T00:19:33;95286.72;;;5.18;100.00
62634;BME280;48704;50.534;6.442;2023-04-07T00:21:59;95282.09;;;5.15;100.00
62634;BME280;48704;50.534;6.442;2023-04-07T00:24:25;95289.94;;;5.17;100.00
62634;BME280;48704;50.534;6.442;2023-04-07T00:26:51;95285.19;;;5.17;100.00
62634;BME280;48704;50.534;6.442;2023-04-07T00:29:16;95285.19;;;5.17;100.00
62634;BME280;48704;50.534;6.442;2023-04-07T00:31:42;95281.81;;;5.22;100.00
62634;BME280;48704;50.534;6.442;2023-04-07T00:34:07;95284.66;;;5.10;100.00
62634;BME280;48704;50.534;6.442;2023-04-07T00:36:32;95279.78;;;5.14;100.00
62634;BME280;48704;50.534;6.442;2023-04-07T00:38:58;95277.47;;;5.12;100.00
62634;BME280;48704;50.534;6.442;2023-04-07T00:41:23;95275.91;;;4.89;100.00
62634;BME280;48704;50.534;6.442;2023-04-07T00:43:50;95270.81;;;4.88;100.00
62634;BME280;48704;50.534;6.442;2023-04-07T00:46:16;95271.94;;;5.12;100.00
62634;BME280;48704;50.534;6.442;2023-04-07T00:48:42;95275.16;;;5.11;100.00
62634;BME280;48704;50.534;6.442;2023-04-07T00:51:07;95269.50;;;5.14;100.00
62634;BME280;48704;50.534;6.442;2023-04-07T00:53:33;95274.91;;;5.18;100.00
62634;BME280;48704;50.534;6.442;2023-04-07T00:55:58;95266.66;;;5.05;100.00
62634;BME280;48704;50.534;6.442;2023-04-07T00:58:23;95268.59;;;4.95;100.00
62634;BME280;48704;50.534;6.442;2023-04-07T01:00:57;95271.94;;;5.12;100.00
62634;BME280;48704;50.534;6.442;2023-04-07T01:03:33;95272.84;;;5.09;100.00
62634;BME280;48704;50.534;6.442;2023-04-07T01:06:04;95269.19;;;5.12;100.00
62634;BME280;48704;50.534;6.442;2023-04-07T01:08:37;95272.59;;;5.16;100.00
62634;BME280;48704;50.534;6.442;2023-04-07T01:11:23;95271.03;;;5.15;100.00
62634;BME280;48704;50.534;6.442;2023-04-07T01:13:51;95267.31;;;5.09;100.00
62634;BME280;48704;50.534;6.442;2023-04-07T01:16:36;95261.28;;;5.01;100.00
62634;BME280;48704;50.534;6.442;2023-04-07T01:19:13;95262.28;;;4.95;100.00
62634;BME280;48704;50.534;6.442;2023-04-07T01:21:43;95264.44;;;5.13;100.00
62634;BME280;48704;50.534;6.442;2023-04-07T01:26:40;95268.84;;;5.10;100.00
62634;BME280;48704;50.534;6.442;2023-04-07T01:31:53;95266.09;;;5.10;100.00
62634;BME280;48704;50.534;6.442;2023-04-07T01:34:20;95268.13;;;4.97;100.00
62634;BME280;48704;50.534;6.442;2023-04-07T01:36:47;95267.31;;;5.09;100.00
62634;BME280;48704;50.534;6.442;2023-04-07T01:39:14;95262.94;;;4.99;100.00
62634;BME280;48704;50.534;6.442;2023-04-07T01:41:40;95267.25;;;5.00;100.00
62634;BME280;48704;50.534;6.442;2023-04-07T01:44:07;95270.97;;;5.06;100.00
62634;BME280;48704;50.534;6.442;2023-04-07T01:46:33;95264.22;;;5.07;100.00
62634;BME280;48704;50.534;6.442;2023-04-07T01:48:59;95268.34;;;4.81;100.00
62634;BME280;48704;50.534;6.442;2023-04-07T01:51:26;95268.72;;;4.92;100.00
62634;BME280;48704;50.534;6.442;2023-04-07T01:53:53;95274.63;;;5.03;100.00
62634;BME280;48704;50.534;6.442;2023-04-07T01:56:19;95272.50;;;5.07;100.00
62634;BME280;48704;50.534;6.442;2023-04-07T01:58:44;95261.16;;;5.05;100.00
62634;BME280;48704;50.534;6.442;2023-04-07T02:01:10;95268.72;;;4.92;100.00
62634;BME280;48704;50.534;6.442;2023-04-07T02:03:39;95266.53;;;4.87;100.00
62634;BME280;48704;50.534;6.442;2023-04-07T02:06:07;95260.75;;;4.94;100.00
62634;BME280;48704;50.534;6.442;2023-04-07T02:08:35;95273.66;;;4.97;100.00
62634;BME280;48704;50.534;6.442;2023-04-07T02:11:02;95271.53;;;5.01;100.00
62634;BME280;48704;50.534;6.442;2023-04-07T02:13:28;95270.66;;;5.04;100.00
62634;BME280;48704;50.534;6.442;2023-04-07T02:15:55;95265.13;;;5.04;100.00
62634;BME280;48704;50.534;6.442;2023-04-07T02:18:22;95266.03;;;5.01;100.00
62634;BME280;48704;50.534;6.442;2023-04-07T02:20:50;95262.03;;;5.02;100.00
62634;BME280;48704;50.534;6.442;2023-04-07T02:23:16;95266.03;;;5.01;100.00
62634;BME280;48704;50.534;6.442;2023-04-07T02:25:42;95266.03;;;5.01;100.00
62634;BME280;48704;50.534;6.442;2023-04-07T02:28:07;95263.84;;;4.96;100.00
62634;BME280;48704;50.534;6.442;2023-04-07T02:30:33;95266.16;;;4.97;100.00
62634;BME280;48704;50.534;6.442;2023-04-07T02:32:58;95263.38;;;4.97;100.00
62634;BME280;48704;50.534;6.442;2023-04-07T02:35:24;95266.91;;;4.98;100.00
62634;BME280;48704;50.534;6.442;2023-04-07T02:37:49;95265.38;;;4.97;100.00
62634;BME280;48704;50.534;6.442;2023-04-07T02:40:15;95268.25;;;4.93;100.00
62634;BME280;48704;50.534;6.442;2023-04-07T02:42:41;95270.56;;;4.95;100.00
62634;BME280;48704;50.534;6.442;2023-04-07T02:45:07;95265.69;;;4.99;100.00
62634;BME280;48704;50.534;6.442;2023-04-07T02:47:33;95267.03;;;4.94;100.00
62634;BME280;48704;50.534;6.442;2023-04-07T02:49:58;95266.84;;;4.89;100.00
62634;BME280;48704;50.534;6.442;2023-04-07T02:52:24;95268.72;;;4.92;100.00
62634;BME280;48704;50.534;6.442;2023-04-07T02:54:50;95269.34;;;4.96;100.00
62634;BME280;48704;50.534;6.442;2023-04-07T02:57:15;95273.47;;;4.91;100.00
62634;BME280;48704;50.534;6.442;2023-04-07T02:59:41;95276.63;;;4.81;100.00
62634;BME280;48704;50.534;6.442;2023-04-07T03:02:06;95266.53;;;4.87;100.00
62634;BME280;48704;50.534;6.442;2023-04-07T03:04:31;95269.59;;;4.89;100.00
62634;BME280;48704;50.534;6.442;2023-04-07T03:06:57;95270.50;;;4.86;100.00
62634;BME280;48704;50.534;6.442;2023-04-07T03:09:22;95277.06;;;4.79;100.00
62634;BME280;48704;50.534;6.442;2023-04-07T03:11:48;95268.63;;;4.83;100.00
62634;BME280;48704;50.534;6.442;2023-04-07T03:14:13;95275.78;;;4.93;100.00
62634;BME280;48704;50.534;6.442;2023-04-07T03:16:38;95276.34;;;4.88;100.00
62634;BME280;48704;50.534;6.442;2023-04-07T03:19:04;95268.84;;;4.88;100.00
62634;BME280;48704;50.534;6.442;2023-04-07T03:21:29;95277.56;;;4.87;100.00
62634;BME280;48704;50.534;6.442;2023-04-07T03:23:56;95278.06;;;4.73;100.00
62634;BME280;48704;50.534;6.442;2023-04-07T03:26:21;95275.84;;;4.80;100.00
62634;BME280;48704;50.534;6.442;2023-04-07T03:28:46;95283.97;;;4.84;100.00
62634;BME280;48704;50.534;6.442;2023-04-07T03:31:12;95268.78;;;4.79;100.00
62634;BME280;48704;50.534;6.442;2023-04-07T03:33:37;95275.00;;;4.70;100.00
62634;BME280;48704;50.534;6.442;2023-04-07T03:36:02;95274.75;;;4.78;100.00
62634;BME280;48704;50.534;6.442;2023-04-07T03:38:28;95270.91;;;4.75;100.00
62634;BME280;48704;50.534;6.442;2023-04-07T03:40:53;95269.06;;;4.59;100.00
62634;BME280;48704;50.534;6.442;2023-04-07T03:43:18;95269.47;;;4.70;100.00
62634;BME280;48704;50.534;6.442;2023-04-07T03:45:44;95265.97;;;4.57;100.00
62634;BME280;48704;50.534;6.442;2023-04-07T03:48:09;95276.22;;;4.69;100.00
62634;BME280;48704;50.534;6.442;2023-04-07T03:50:37;95267.94;;;4.69;100.00
62634;BME280;48704;50.534;6.442;2023-04-07T03:53:03;95271.66;;;4.76;100.00
62634;BME280;48704;50.534;6.442;2023-04-07T03:55:28;95271.50;;;4.57;100.00
62634;BME280;48704;50.534;6.442;2023-04-07T03:57:54;95272.03;;;4.65;100.00
62634;BME280;48704;50.534;6.442;2023-04-07T04:00:20;95273.44;;;4.69;100.00
62634;BME280;48704;50.534;6.442;2023-04-07T04:02:45;95264.19;;;4.63;100.00
62634;BME280;48704;50.534;6.442;2023-04-07T04:05:10;95264.41;;;4.69;100.00
62634;BME280;48704;50.534;6.442;2023-04-07T04:07:36;95269.72;;;4.63;100.00
62634;BME280;48704;50.534;6.442;2023-04-07T04:10:01;95266.88;;;4.54;100.00
62634;BME280;48704;50.534;6.442;2023-04-07T04:12:26;95263.66;;;4.56;100.00
62634;BME280;48704;50.534;6.442;2023-04-07T04:14:52;95268.81;;;4.66;100.00
62634;BME280;48704;50.534;6.442;2023-04-07T04:17:17;95269.06;;;4.59;100.00
62634;BME280;48704;50.534;6.442;2023-04-07T04:19:43;95270.59;;;4.60;100.00
62634;BME280;48704;50.534;6.442;2023-04-07T04:22:08;95267.75;;;4.51;100.00
62634;BME280;48704;50.534;6.442;2023-04-07T04:24:33;95271.50;;;4.57;100.00
62634;BME280;48704;50.534;6.442;2023-04-07T04:26:59;95281.22;;;4.49;100.00
62634;BME280;48704;50.534;6.442;2023-04-07T04:29:25;95277.75;;;4.36;100.00
62634;BME280;48704;50.534;6.442;2023-04-07T04:31:51;95287.34;;;4.44;100.00
62634;BME280;48704;50.534;6.442;2023-04-07T04:34:16;95284.63;;;4.53;100.00
62634;BME280;48704;50.534;6.442;2023-04-07T04:36:41;95286.69;;;4.40;100.00
62634;BME280;48704;50.534;6.442;2023-04-07T04:39:07;95288.28;;;4.50;100.00
62634;BME280;48704;50.534;6.442;2023-04-07T04:41:32;95293.06;;;4.37;100.00
62634;BME280;48704;50.534;6.442;2023-04-07T04:43:57;95296.22;;;4.48;100.00
62634;BME280;48704;50.534;6.442;2023-04-07T04:46:23;95290.72;;;4.48;100.00
62634;BME280;48704;50.534;6.442;2023-04-07T04:48:48;95288.13;;;4.32;100.00
62634;BME280;48704;50.534;6.442;2023-04-07T04:51:15;95287.00;;;4.42;100.00
62634;BME280;48704;50.534;6.442;2023-04-07T04:53:40;95292.97;;;4.41;100.00
62634;BME280;48704;50.534;6.442;2023-04-07T04:56:07;95297.59;;;4.31;100.00
62634;BME280;48704;50.534;6.442;2023-04-07T04:58:33;95297.91;;;4.46;100.00
62634;BME280;48704;50.534;6.442;2023-04-07T05:00:59;95305.16;;;4.52;100.00
62634;BME280;48704;50.534;6.442;2023-04-07T05:03:26;95302.78;;;4.42;100.00
62634;BME280;48704;50.534;6.442;2023-04-07T05:05:52;95311.94;;;4.26;100.00
62634;BME280;48704;50.534;6.442;2023-04-07T05:08:17;95316.13;;;4.43;100.00
62634;BME280;48704;50.534;6.442;2023-04-07T05:10:42;95312.16;;;4.44;100.00
62634;BME280;48704;50.534;6.442;2023-04-07T05:13:07;95317.69;;;4.44;100.00
62634;BME280;48704;50.534;6.442;2023-04-07T05:15:33;95321.00;;;4.39;100.00
62634;BME280;48704;50.534;6.442;2023-04-07T05:17:58;95320.50;;;4.53;100.00
62634;BME280;48704;50.534;6.442;2023-04-07T05:20:23;95324.41;;;4.43;100.00
62634;BME280;48704;50.534;6.442;2023-04-07T05:22:49;95326.41;;;4.30;100.00
62634;BME280;48704;50.534;6.442;2023-04-07T05:25:14;95325.84;;;4.35;100.00
62634;BME280;48704;50.534;6.442;2023-04-07T05:27:40;95322.44;;;4.44;100.00
62634;BME280;48704;50.534;6.442;2023-04-07T05:30:05;95325.75;;;4.39;100.00
62634;BME280;48704;50.534;6.442;2023-04-07T05:32:31;95319.13;;;4.36;100.00
62634;BME280;48704;50.534;6.442;2023-04-07T05:34:56;95322.09;;;4.29;100.00
62634;BME280;48704;50.534;6.442;2023-04-07T05:37:22;95316.59;;;4.29;100.00
62634;BME280;48704;50.534;6.442;2023-04-07T05:39:47;95320.00;;;4.33;100.00
62634;BME280;48704;50.534;6.442;2023-04-07T05:42:12;95323.66;;;4.30;100.00
62634;BME280;48704;50.534;6.442;2023-04-07T05:44:37;95319.00;;;4.27;100.00
62634;BME280;48704;50.534;6.442;2023-04-07T05:47:03;95320.34;;;4.35;100.00
62634;BME280;48704;50.534;6.442;2023-04-07T05:49:33;95328.84;;;4.28;100.00
62634;BME280;48704;50.534;6.442;2023-04-07T05:51:58;95330.72;;;4.31;100.00
62634;BME280;48704;50.534;6.442;2023-04-07T05:54:23;95321.38;;;4.50;100.00
62634;BME280;48704;50.534;6.442;2023-04-07T05:56:49;95329.72;;;4.38;100.00
62634;BME280;48704;50.534;6.442;2023-04-07T05:59:14;95335.88;;;4.42;100.00
62634;BME280;48704;50.534;6.442;2023-04-07T06:01:41;95329.94;;;4.30;100.00
62634;BME280;48704;50.534;6.442;2023-04-07T06:04:06;95335.78;;;4.45;100.00
62634;BME280;48704;50.534;6.442;2023-04-07T06:06:32;95339.94;;;4.50;100.00
62634;BME280;48704;50.534;6.442;2023-04-07T06:08:57;95341.28;;;4.45;100.00
62634;BME280;48704;50.534;6.442;2023-04-07T06:11:22;95340.63;;;4.41;100.00
62634;BME280;48704;50.534;6.442;2023-04-07T06:13:48;95346.03;;;4.32;100.00
62634;BME280;48704;50.534;6.442;2023-04-07T06:16:13;95345.94;;;4.23;100.00
62634;BME280;48704;50.534;6.442;2023-04-07T06:18:39;95346.47;;;4.43;100.00
62634;BME280;48704;50.534;6.442;2023-04-07T06:21:04;95357.41;;;4.21;100.00
62634;BME280;48704;50.534;6.442;2023-04-07T06:23:30;95361.03;;;4.44;100.00
62634;BME280;48704;50.534;6.442;2023-04-07T06:25:55;95362.94;;;4.34;100.00
62634;BME280;48704;50.534;6.442;2023-04-07T06:28:20;95366.91;;;4.33;100.00
62634;BME280;48704;50.534;6.442;2023-04-07T06:30:46;95370.00;;;4.35;100.00
62634;BME280;48704;50.534;6.442;2023-04-07T06:33:11;95372.84;;;4.19;100.00
62634;BME280;48704;50.534;6.442;2023-04-07T06:35:38;95374.72;;;4.22;100.00
62634;BME280;48704;50.534;6.442;2023-04-07T06:38:03;95381.03;;;4.35;100.00
62634;BME280;48704;50.534;6.442;2023-04-07T06:40:29;95376.47;;;4.54;100.00
62634;BME280;48704;50.534;6.442;2023-04-07T06:42:54;95382.34;;;4.43;100.00
62634;BME280;48704;50.534;6.442;2023-04-07T06:45:20;95380.31;;;4.56;100.00
62634;BME280;48704;50.534;6.442;2023-04-07T06:47:46;95379.22;;;4.66;100.00
62634;BME280;48704;50.534;6.442;2023-04-07T06:50:11;95382.31;;;4.68;100.00
62634;BME280;48704;50.534;6.442;2023-04-07T06:52:36;95392.78;;;4.61;100.00
62634;BME280;48704;50.534;6.442;2023-04-07T06:55:01;95388.03;;;4.61;100.00
62634;BME280;48704;50.534;6.442;2023-04-07T06:57:27;95391.84;;;4.42;100.00
62634;BME280;48704;50.534;6.442;2023-04-07T06:59:52;95394.78;;;4.48;100.00
62634;BME280;48704;50.534;6.442;2023-04-07T07:02:18;95388.97;;;4.33;100.00
62634;BME280;48704;50.534;6.442;2023-04-07T07:04:43;95397.69;;;4.31;100.00
62634;BME280;48704;50.534;6.442;2023-04-07T07:07:08;95398.25;;;4.39;100.00
62634;BME280;48704;50.534;6.442;2023-04-07T07:09:34;95401.53;;;4.59;100.00
62634;BME280;48704;50.534;6.442;2023-04-07T07:11:59;95408.47;;;4.51;100.00
62634;BME280;48704;50.534;6.442;2023-04-07T07:14:26;95405.47;;;4.71;100.00
62634;BME280;48704;50.534;6.442;2023-04-07T07:16:51;95413.22;;;4.63;100.00
62634;BME280;48704;50.534;6.442;2023-04-07T07:19:16;95405.38;;;4.62;100.00
62634;BME280;48704;50.534;6.442;2023-04-07T07:21:42;95417.19;;;4.62;100.00
62634;BME280;48704;50.534;6.442;2023-04-07T07:24:07;95414.53;;;4.72;100.00
62634;BME280;48704;50.534;6.442;2023-04-07T07:26:32;95420.72;;;4.76;100.00
62634;BME280;48704;50.534;6.442;2023-04-07T07:28:58;95415.41;;;4.68;100.00
62634;BME280;48704;50.534;6.442;2023-04-07T07:31:23;95419.41;;;4.67;100.00
62634;BME280;48704;50.534;6.442;2023-04-07T07:33:48;95425.56;;;4.46;100.00
62634;BME280;48704;50.534;6.442;2023-04-07T07:36:15;95420.84;;;4.47;100.00
62634;BME280;48704;50.534;6.442;2023-04-07T07:38:41;95419.63;;;4.35;100.00
62634;BME280;48704;50.534;6.442;2023-04-07T07:41:06;95429.13;;;4.34;100.00
62634;BME280;48704;50.534;6.442;2023-04-07T07:43:32;95429.44;;;4.49;100.00
62634;BME280;48704;50.534;6.442;2023-04-07T07:45:57;95434.41;;;4.66;100.00
62634;BME280;48704;50.534;6.442;2023-04-07T07:48:22;95436.06;;;4.64;100.00
62634;BME280;48704;50.534;6.442;2023-04-07T07:50:48;95439.22;;;4.88;100.00
62634;BME280;48704;50.534;6.442;2023-04-07T07:53:14;95439.34;;;4.84;100.00
62634;BME280;48704;50.534;6.442;2023-04-07T07:55:40;95437.16;;;4.66;100.00
62634;BME280;48704;50.534;6.442;2023-04-07T07:58:05;95436.13;;;4.86;100.00
62634;BME280;48704;50.534;6.442;2023-04-07T08:00:31;95442.09;;;4.97;100.00
62634;BME280;48704;50.534;6.442;2023-04-07T08:02:56;95448.31;;;4.76;100.00
62634;BME280;48704;50.534;6.442;2023-04-07T08:05:21;95442.69;;;4.79;100.00
62634;BME280;48704;50.534;6.442;2023-04-07T08:07:47;95449.09;;;4.76;100.00
62634;BME280;48704;50.534;6.442;2023-04-07T08:10:13;95444.34;;;4.77;100.00
62634;BME280;48704;50.534;6.442;2023-04-07T08:12:38;95445.22;;;4.61;100.00
62634;BME280;48704;50.534;6.442;2023-04-07T08:15:04;95446.22;;;4.67;100.00
62634;BME280;48704;50.534;6.442;2023-04-07T08:17:31;95452.47;;;4.93;100.00
62634;BME280;48704;50.534;6.442;2023-04-07T08:19:57;95449.16;;;5.11;100.00
62634;BME280;48704;50.534;6.442;2023-04-07T08:22:22;95454.03;;;4.94;100.00
62634;BME280;48704;50.534;6.442;2023-04-07T08:24:47;95457.88;;;4.96;100.00
62634;BME280;48704;50.534;6.442;2023-04-07T08:27:13;95458.75;;;5.19;100.00
62634;BME280;48704;50.534;6.442;2023-04-07T08:29:38;95458.53;;;5.13;100.00
62634;BME280;48704;50.534;6.442;2023-04-07T08:32:04;95459.09;;;4.83;100.00
62634;BME280;48704;50.534;6.442;2023-04-07T08:34:29;95453.69;;;5.04;100.00
62634;BME280;48704;50.534;6.442;2023-04-07T08:36:54;95461.53;;;5.06;100.00
62634;BME280;48704;50.534;6.442;2023-04-07T08:39:19;95459.66;;;4.90;100.00
62634;BME280;48704;50.534;6.442;2023-04-07T08:41:47;95467.72;;;5.10;100.00
62634;BME280;48704;50.534;6.442;2023-04-07T08:44:14;95472.28;;;5.38;100.00
62634;BME280;48704;50.534;6.442;2023-04-07T08:46:40;95467.09;;;5.28;100.00
62634;BME280;48704;50.534;6.442;2023-04-07T08:49:10;95462.28;;;5.54;100.00
62634;BME280;48704;50.534;6.442;2023-04-07T08:51:44;95462.78;;;5.61;100.00
62634;BME280;48704;50.534;6.442;2023-04-07T08:54:10;95463.97;;;5.73;100.00
62634;BME280;48704;50.534;6.442;2023-04-07T08:56:40;95466.53;;;5.67;100.00
62634;BME280;48704;50.534;6.442;2023-04-07T08:59:07;95469.25;;;5.80;100.00
62634;BME280;48704;50.534;6.442;2023-04-07T09:01:34;95473.16;;;5.70;100.00
62634;BME280;48704;50.534;6.442;2023-04-07T09:04:04;95473.88;;;5.83;100.00
62634;BME280;48704;50.534;6.442;2023-04-07T09:06:32;95477.50;;;5.58;100.00
62634;BME280;48704;50.534;6.442;2023-04-07T09:08:58;95468.13;;;5.78;100.00
62634;BME280;48704;50.534;6.442;2023-04-07T09:11:25;95473.72;;;5.65;100.00
62634;BME280;48704;50.534;6.442;2023-04-07T09:13:51;95479.84;;;5.82;100.00
62634;BME280;48704;50.534;6.442;2023-04-07T09:16:17;95478.88;;;5.76;100.00
62634;BME280;48704;50.534;6.442;2023-04-07T09:18:42;95485.72;;;6.06;100.00
62634;BME280;48704;50.534;6.442;2023-04-07T09:21:08;95486.72;;;5.55;100.00
62634;BME280;48704;50.534;6.442;2023-04-07T09:23:35;95483.88;;;5.68;100.00
62634;BME280;48704;50.534;6.442;2023-04-07T09:26:31;95485.59;;;5.87;100.00
62634;BME280;48704;50.534;6.442;2023-04-07T09:28:59;95481.84;;;5.81;100.00
62634;BME280;48704;50.534;6.442;2023-04-07T09:31:44;95488.41;;;5.96;100.00
62634;BME280;48704;50.534;6.442;2023-04-07T09:34:28;95492.16;;;5.68;100.00
62634;BME280;48704;50.534;6.442;2023-04-07T09:36:54;95490.47;;;5.83;100.00
62634;BME280;48704;50.534;6.442;2023-04-07T09:39:20;95484.53;;;5.72;100.00
62634;BME280;48704;50.534;6.442;2023-04-07T09:41:46;95492.38;;;5.74;100.00
62634;BME280;48704;50.534;6.442;2023-04-07T09:44:11;95486.31;;;5.66;100.00
62634;BME280;48704;50.534;6.442;2023-04-07T09:47:08;95485.09;;;5.67;100.00
62634;BME280;48704;50.534;6.442;2023-04-07T09:49:48;95489.06;;;6.00;100.00
62634;BME280;48704;50.534;6.442;2023-04-07T09:52:14;95486.25;;;5.91;100.00
62634;BME280;48704;50.534;6.442;2023-04-07T09:54:41;95491.94;;;5.41;100.00
62634;BME280;48704;50.534;6.442;2023-04-07T09:57:08;95501.41;;;5.52;100.00
62634;BME280;48704;50.534;6.442;2023-04-07T09:59:35;95491.69;;;5.48;100.00
62634;BME280;48704;50.534;6.442;2023-04-07T10:02:01;95501.91;;;5.25;100.00
62634;BME280;48704;50.534;6.442;2023-04-07T10:04:27;95489.25;;;5.50;100.00
62634;BME280;48704;50.534;6.442;2023-04-07T10:06:54;95491.84;;;5.66;100.00
62634;BME280;48704;50.534;6.442;2023-04-07T10:09:22;95496.59;;;5.65;100.00
62634;BME280;48704;50.534;6.442;2023-04-07T10:11:49;95491.34;;;5.80;100.00
62634;BME280;48704;50.534;6.442;2023-04-07T10:14:15;95491.53;;;6.20;100.00
62634;BME280;48704;50.534;6.442;2023-04-07T10:16:42;95483.41;;;6.26;100.00
62634;BME280;48704;50.534;6.442;2023-04-07T10:19:08;95495.97;;;6.18;100.00
62634;BME280;48704;50.534;6.442;2023-04-07T10:21:36;95494.34;;;6.29;100.00
62634;BME280;48704;50.534;6.442;2023-04-07T10:24:45;95497.81;;;5.99;100.00
62634;BME280;48704;50.534;6.442;2023-04-07T10:27:17;95505.53;;;6.26;100.00
62634;BME280;48704;50.534;6.442;2023-04-07T10:29:45;95505.38;;;6.51;100.00
62634;BME280;48704;50.534;6.442;2023-04-07T10:32:13;95505.94;;;6.68;100.00
62634;BME280;48704;50.534;6.442;2023-04-07T10:37:18;95506.63;;;6.90;100.00
62634;BME280;48704;50.534;6.442;2023-04-07T10:39:46;95521.50;;;6.22;100.00
62634;BME280;48704;50.534;6.442;2023-04-07T10:45:02;95522.91;;;6.04;100.00
62634;BME280;48704;50.534;6.442;2023-04-07T10:47:28;95518.44;;;6.82;100.00
62634;BME280;48704;50.534;6.442;2023-04-07T10:52:43;95530.13;;;8.02;100.00
62634;BME280;48704;50.534;6.442;2023-04-07T10:55:28;95520.53;;;7.85;100.00
62634;BME280;48704;50.534;6.442;2023-04-07T10:58:16;95533.97;;;7.19;100.00
62634;BME280;48704;50.534;6.442;2023-04-07T11:03:31;95530.88;;;6.02;100.00
62634;BME280;48704;50.534;6.442;2023-04-07T11:06:05;95533.09;;;6.29;100.00
62634;BME280;48704;50.534;6.442;2023-04-07T11:11:05;95536.31;;;6.28;100.00
62634;BME280;48704;50.534;6.442;2023-04-07T11:13:41;95540.63;;;6.29;100.00
62634;BME280;48704;50.534;6.442;2023-04-07T11:16:07;95538.34;;;6.58;100.00
62634;BME280;48704;50.534;6.442;2023-04-07T11:18:35;95545.34;;;6.50;100.00
62634;BME280;48704;50.534;6.442;2023-04-07T11:21:01;95540.84;;;6.65;100.00
62634;BME280;48704;50.534;6.442;2023-04-07T11:23:27;95544.09;;;6.73;100.00
62634;BME280;48704;50.534;6.442;2023-04-07T11:25:59;95546.66;;;6.89;100.00
62634;BME280;48704;50.534;6.442;2023-04-07T11:28:28;95555.59;;;6.62;100.00
62634;BME280;48704;50.534;6.442;2023-04-07T11:30:54;95559.72;;;6.36;100.00
62634;BME280;48704;50.534;6.442;2023-04-07T11:33:22;95564.06;;;6.02;100.00
62634;BME280;48704;50.534;6.442;2023-04-07T11:35:52;95568.25;;;5.60;100.00
62634;BME280;48704;50.534;6.442;2023-04-07T11:38:20;95558.06;;;5.69;100.00
62634;BME280;48704;50.534;6.442;2023-04-07T11:40:46;95561.25;;;5.93;100.00
62634;BME280;48704;50.534;6.442;2023-04-07T11:43:25;95558.28;;;6.10;100.00
62634;BME280;48704;50.534;6.442;2023-04-07T11:46:14;95568.59;;;6.53;100.00
62634;BME280;48704;50.534;6.442;2023-04-07T11:48:42;95568.97;;;6.42;100.00
62634;BME280;48704;50.534;6.442;2023-04-07T11:51:18;95572.59;;;6.30;100.00
62634;BME280;48704;50.534;6.442;2023-04-07T11:53:45;95573.81;;;6.29;100.00
62634;BME280;48704;50.534;6.442;2023-04-07T11:56:14;95571.44;;;6.18;100.00
62634;BME280;48704;50.534;6.442;2023-04-07T11:58:53;95581.06;;;6.14;100.00
62634;BME280;48704;50.534;6.442;2023-04-07T12:01:19;95575.41;;;6.61;100.00
62634;BME280;48704;50.534;6.442;2023-04-07T12:04:01;95578.50;;;6.41;100.00
62634;BME280;48704;50.534;6.442;2023-04-07T12:06:30;95579.41;;;6.38;100.00
62634;BME280;48704;50.534;6.442;2023-04-07T12:08:59;95580.06;;;6.42;100.00
62634;BME280;48704;50.534;6.442;2023-04-07T12:11:24;95577.81;;;6.50;100.00
62634;BME280;48704;50.534;6.442;2023-04-07T12:13:50;95583.91;;;6.45;100.00
62634;BME280;48704;50.534;6.442;2023-04-07T12:16:16;95579.28;;;6.20;100.00
62634;BME280;48704;50.534;6.442;2023-04-07T12:18:42;95588.16;;;6.15;100.00
62634;BME280;48704;50.534;6.442;2023-04-07T12:21:07;95587.16;;;5.74;100.00
62634;BME280;48704;50.534;6.442;2023-04-07T12:23:33;95584.00;;;5.97;100.00
62634;BME280;48704;50.534;6.442;2023-04-07T12:25:58;95589.31;;;6.48;100.00
62634;BME280;48704;50.534;6.442;2023-04-07T12:28:23;95588.94;;;6.59;100.00
62634;BME280;48704;50.534;6.442;2023-04-07T12:30:49;95593.81;;;6.33;100.00
62634;BME280;48704;50.534;6.442;2023-04-07T12:33:14;95596.41;;;6.49;100.00
62634;BME280;48704;50.534;6.442;2023-04-07T12:35:39;95597.63;;;6.48;100.00
62634;BME280;48704;50.534;6.442;2023-04-07T12:38:05;95589.38;;;6.14;100.00
62634;BME280;48704;50.534;6.442;2023-04-07T12:40:30;95593.44;;;6.65;100.00
62634;BME280;48704;50.534;6.442;2023-04-07T12:42:56;95591.00;;;6.67;100.00
62634;BME280;48704;50.534;6.442;2023-04-07T12:45:24;95591.63;;;6.71;100.00
62634;BME280;48704;50.534;6.442;2023-04-07T12:47:50;95590.63;;;7.18;100.00
62634;BME280;48704;50.534;6.442;2023-04-07T12:50:15;95591.63;;;7.33;100.00
62634;BME280;48704;50.534;6.442;2023-04-07T12:52:41;95584.94;;;7.22;100.00
62634;BME280;48704;50.534;6.442;2023-04-07T12:55:07;95590.44;;;7.03;100.00
62634;BME280;48704;50.534;6.442;2023-04-07T12:57:32;95589.72;;;7.21;100.00
62634;BME280;48704;50.534;6.442;2023-04-07T12:59:58;95588.25;;;6.98;100.00
62634;BME280;48704;50.534;6.442;2023-04-07T13:02:23;95589.66;;;7.03;100.00
62634;BME280;48704;50.534;6.442;2023-04-07T13:04:48;95587.28;;;6.92;100.00
62634;BME280;48704;50.534;6.442;2023-04-07T13:07:14;95592.16;;;6.57;100.00
62634;BME280;48704;50.534;6.442;2023-04-07T13:09:40;95591.09;;;6.86;100.00
62634;BME280;48704;50.534;6.442;2023-04-07T13:12:12;95593.19;;;7.03;100.00
62634;BME280;48704;50.534;6.442;2023-04-07T13:14:41;95595.84;;;7.16;100.00
62634;BME280;48704;50.534;6.442;2023-04-07T13:17:07;95598.34;;;7.23;100.00